< < Back
Terminal Aerodrome Forecast


Current Version              Previous Versions:   1  2  3  4  5  6  7  8  9  

Terminal Aerodrome Forecast

736
FTUS42 KCHS 031131
TAFSAV
TAF
KSAV 031131Z 0312/0412 14006KT P6SM VCSH SCT025 BKN060
      TEMPO 0315/0318 6SM SHRA BKN030
     FM031800 18010KT P6SM VCTS SCT030CB BKN080
     FM032300 15005KT P6SM SCT025=

Latest METAR

528
SAUS80 KWBC 040100
MTRSAV
METAR KSAV 040053Z 08005KT 10SM FEW017 SCT044TCU SCT140 26/24 A2987 RMK
AO2 SLP114 TCU SE AND SW T02610239


USA.gov is the U.S. government's official web portal to all federal, state and local government web resources and services.